sensor_id;sensor_type;location;lat;lon;timestamp;P1;durP1;ratioP1;P2;durP2;ratioP2
30515;SDS011;17297;54.022;10.760;2023-04-15T00:02:21;4.65;;;3.28;;
30515;SDS011;17297;54.022;10.760;2023-04-15T00:04:47;3.78;;;3.22;;
30515;SDS011;17297;54.022;10.760;2023-04-15T00:07:13;5.82;;;4.45;;
30515;SDS011;17297;54.022;10.760;2023-04-15T00:09:39;6.20;;;3.85;;
30515;SDS011;17297;54.022;10.760;2023-04-15T00:12:05;5.65;;;4.05;;
30515;SDS011;17297;54.022;10.760;2023-04-15T00:14:32;6.03;;;4.20;;
30515;SDS011;17297;54.022;10.760;2023-04-15T00:16:58;5.68;;;3.72;;
30515;SDS011;17297;54.022;10.760;2023-04-15T00:19:24;8.90;;;4.03;;
30515;SDS011;17297;54.022;10.760;2023-04-15T00:21:49;6.78;;;4.03;;
30515;SDS011;17297;54.022;10.760;2023-04-15T00:24:15;6.57;;;4.20;;
30515;SDS011;17297;54.022;10.760;2023-04-15T00:26:41;6.25;;;3.67;;
30515;SDS011;17297;54.022;10.760;2023-04-15T00:29:06;6.07;;;3.55;;
30515;SDS011;17297;54.022;10.760;2023-04-15T00:31:34;7.18;;;4.88;;
30515;SDS011;17297;54.022;10.760;2023-04-15T00:33:59;6.63;;;4.80;;
30515;SDS011;17297;54.022;10.760;2023-04-15T00:36:26;8.50;;;5.30;;
30515;SDS011;17297;54.022;10.760;2023-04-15T00:38:51;10.45;;;5.40;;
30515;SDS011;17297;54.022;10.760;2023-04-15T00:41:18;10.07;;;6.85;;
30515;SDS011;17297;54.022;10.760;2023-04-15T00:43:43;13.32;;;7.00;;
30515;SDS011;17297;54.022;10.760;2023-04-15T00:46:09;13.35;;;8.02;;
30515;SDS011;17297;54.022;10.760;2023-04-15T00:48:37;13.10;;;8.00;;
30515;SDS011;17297;54.022;10.760;2023-04-15T00:51:04;14.35;;;8.38;;
30515;SDS011;17297;54.022;10.760;2023-04-15T00:53:29;19.52;;;9.75;;
30515;SDS011;17297;54.022;10.760;2023-04-15T00:55:55;15.32;;;10.27;;
30515;SDS011;17297;54.022;10.760;2023-04-15T00:58:20;18.35;;;10.18;;
30515;SDS011;17297;54.022;10.760;2023-04-15T01:00:45;18.25;;;11.40;;
30515;SDS011;17297;54.022;10.760;2023-04-15T01:03:11;19.92;;;11.13;;
30515;SDS011;17297;54.022;10.760;2023-04-15T01:05:37;20.20;;;11.18;;
30515;SDS011;17297;54.022;10.760;2023-04-15T01:08:03;20.40;;;11.73;;
30515;SDS011;17297;54.022;10.760;2023-04-15T01:10:29;21.73;;;11.88;;
30515;SDS011;17297;54.022;10.760;2023-04-15T01:12:55;24.25;;;12.02;;
30515;SDS011;17297;54.022;10.760;2023-04-15T01:15:21;23.73;;;12.25;;
30515;SDS011;17297;54.022;10.760;2023-04-15T01:17:46;25.42;;;13.32;;
30515;SDS011;17297;54.022;10.760;2023-04-15T01:20:12;28.88;;;15.15;;
30515;SDS011;17297;54.022;10.760;2023-04-15T01:22:39;32.67;;;15.77;;
30515;SDS011;17297;54.022;10.760;2023-04-15T01:25:11;32.53;;;17.05;;
30515;SDS011;17297;54.022;10.760;2023-04-15T01:27:41;33.63;;;18.70;;
30515;SDS011;17297;54.022;10.760;2023-04-15T01:30:07;31.05;;;18.00;;
30515;SDS011;17297;54.022;10.760;2023-04-15T01:32:33;33.17;;;18.65;;
30515;SDS011;17297;54.022;10.760;2023-04-15T01:34:58;45.35;;;19.92;;
30515;SDS011;17297;54.022;10.760;2023-04-15T01:37:23;35.42;;;17.70;;
30515;SDS011;17297;54.022;10.760;2023-04-15T01:39:50;35.67;;;21.25;;
30515;SDS011;17297;54.022;10.760;2023-04-15T01:42:15;34.63;;;20.67;;
30515;SDS011;17297;54.022;10.760;2023-04-15T01:44:41;43.53;;;20.05;;
30515;SDS011;17297;54.022;10.760;2023-04-15T01:47:10;38.28;;;20.55;;
30515;SDS011;17297;54.022;10.760;2023-04-15T01:49:36;42.13;;;21.33;;
30515;SDS011;17297;54.022;10.760;2023-04-15T01:52:01;35.50;;;20.27;;
30515;SDS011;17297;54.022;10.760;2023-04-15T01:54:27;34.08;;;19.75;;
30515;SDS011;17297;54.022;10.760;2023-04-15T01:56:52;36.55;;;19.38;;
30515;SDS011;17297;54.022;10.760;2023-04-15T01:59:17;44.25;;;20.48;;
30515;SDS011;17297;54.022;10.760;2023-04-15T02:01:43;40.53;;;20.23;;
30515;SDS011;17297;54.022;10.760;2023-04-15T02:04:09;38.55;;;19.42;;
30515;SDS011;17297;54.022;10.760;2023-04-15T02:06:40;34.58;;;20.05;;
30515;SDS011;17297;54.022;10.760;2023-04-15T02:09:10;29.98;;;17.02;;
30515;SDS011;17297;54.022;10.760;2023-04-15T02:11:35;33.67;;;16.08;;
30515;SDS011;17297;54.022;10.760;2023-04-15T02:14:02;30.75;;;16.33;;
30515;SDS011;17297;54.022;10.760;2023-04-15T02:16:31;27.30;;;15.60;;
30515;SDS011;17297;54.022;10.760;2023-04-15T02:18:58;33.25;;;16.20;;
30515;SDS011;17297;54.022;10.760;2023-04-15T02:21:25;23.65;;;14.52;;
30515;SDS011;17297;54.022;10.760;2023-04-15T02:23:50;31.42;;;15.60;;
30515;SDS011;17297;54.022;10.760;2023-04-15T02:26:17;31.30;;;15.15;;
30515;SDS011;17297;54.022;10.760;2023-04-15T02:28:43;28.00;;;15.38;;
30515;SDS011;17297;54.022;10.760;2023-04-15T02:31:08;28.75;;;15.70;;
30515;SDS011;17297;54.022;10.760;2023-04-15T02:33:34;32.85;;;13.73;;
30515;SDS011;17297;54.022;10.760;2023-04-15T02:36:01;28.35;;;15.02;;
30515;SDS011;17297;54.022;10.760;2023-04-15T02:38:27;27.20;;;14.40;;
30515;SDS011;17297;54.022;10.760;2023-04-15T02:40:52;26.17;;;13.77;;
30515;SDS011;17297;54.022;10.760;2023-04-15T02:43:17;21.17;;;13.40;;
30515;SDS011;17297;54.022;10.760;2023-04-15T02:45:43;24.88;;;14.23;;
30515;SDS011;17297;54.022;10.760;2023-04-15T02:48:09;26.88;;;13.70;;
30515;SDS011;17297;54.022;10.760;2023-04-15T02:50:35;27.80;;;15.52;;
30515;SDS011;17297;54.022;10.760;2023-04-15T02:53:03;27.38;;;15.07;;
30515;SDS011;17297;54.022;10.760;2023-04-15T02:55:29;23.35;;;14.00;;
30515;SDS011;17297;54.022;10.760;2023-04-15T02:57:55;29.40;;;15.63;;
30515;SDS011;17297;54.022;10.760;2023-04-15T03:00:21;24.63;;;14.32;;
30515;SDS011;17297;54.022;10.760;2023-04-15T03:02:49;28.38;;;15.52;;
30515;SDS011;17297;54.022;10.760;2023-04-15T03:05:16;28.55;;;16.33;;
30515;SDS011;17297;54.022;10.760;2023-04-15T03:07:47;22.35;;;14.50;;
30515;SDS011;17297;54.022;10.760;2023-04-15T03:10:13;26.00;;;14.27;;
30515;SDS011;17297;54.022;10.760;2023-04-15T03:12:39;26.17;;;15.02;;
30515;SDS011;17297;54.022;10.760;2023-04-15T03:15:07;25.58;;;16.48;;
30515;SDS011;17297;54.022;10.760;2023-04-15T03:17:36;29.23;;;17.55;;
30515;SDS011;17297;54.022;10.760;2023-04-15T03:20:02;28.13;;;16.13;;
30515;SDS011;17297;54.022;10.760;2023-04-15T03:22:32;26.45;;;16.00;;
30515;SDS011;17297;54.022;10.760;2023-04-15T03:24:57;23.88;;;15.77;;
30515;SDS011;17297;54.022;10.760;2023-04-15T03:27:23;31.08;;;17.92;;
30515;SDS011;17297;54.022;10.760;2023-04-15T03:29:49;36.35;;;19.77;;
30515;SDS011;17297;54.022;10.760;2023-04-15T03:32:16;39.47;;;20.60;;
30515;SDS011;17297;54.022;10.760;2023-04-15T03:34:42;50.67;;;20.58;;
30515;SDS011;17297;54.022;10.760;2023-04-15T03:37:08;41.10;;;18.77;;
30515;SDS011;17297;54.022;10.760;2023-04-15T03:39:34;39.38;;;20.45;;
30515;SDS011;17297;54.022;10.760;2023-04-15T03:41:59;37.28;;;17.90;;
30515;SDS011;17297;54.022;10.760;2023-04-15T03:44:26;31.98;;;18.55;;
30515;SDS011;17297;54.022;10.760;2023-04-15T03:46:51;30.92;;;18.65;;
30515;SDS011;17297;54.022;10.760;2023-04-15T03:49:17;30.30;;;19.63;;
30515;SDS011;17297;54.022;10.760;2023-04-15T03:51:43;30.92;;;19.27;;
30515;SDS011;17297;54.022;10.760;2023-04-15T03:54:08;35.78;;;22.05;;
30515;SDS011;17297;54.022;10.760;2023-04-15T03:56:34;36.85;;;21.80;;
30515;SDS011;17297;54.022;10.760;2023-04-15T03:58:59;33.45;;;21.10;;
30515;SDS011;17297;54.022;10.760;2023-04-15T04:01:25;34.83;;;23.55;;
30515;SDS011;17297;54.022;10.760;2023-04-15T04:03:50;30.73;;;19.05;;
30515;SDS011;17297;54.022;10.760;2023-04-15T04:06:16;34.13;;;23.85;;
30515;SDS011;17297;54.022;10.760;2023-04-15T04:08:41;36.08;;;22.67;;
30515;SDS011;17297;54.022;10.760;2023-04-15T04:11:07;36.58;;;24.55;;
30515;SDS011;17297;54.022;10.760;2023-04-15T04:13:32;39.75;;;23.40;;
30515;SDS011;17297;54.022;10.760;2023-04-15T04:15:57;39.78;;;23.75;;
30515;SDS011;17297;54.022;10.760;2023-04-15T04:18:23;40.45;;;24.20;;
30515;SDS011;17297;54.022;10.760;2023-04-15T04:20:48;36.05;;;21.08;;
30515;SDS011;17297;54.022;10.760;2023-04-15T04:23:13;31.70;;;20.08;;
30515;SDS011;17297;54.022;10.760;2023-04-15T04:25:39;29.60;;;18.80;;
30515;SDS011;17297;54.022;10.760;2023-04-15T04:28:04;29.38;;;18.77;;
30515;SDS011;17297;54.022;10.760;2023-04-15T04:30:29;32.22;;;18.90;;
30515;SDS011;17297;54.022;10.760;2023-04-15T04:32:55;35.03;;;19.00;;
30515;SDS011;17297;54.022;10.760;2023-04-15T04:35:20;31.83;;;20.15;;
30515;SDS011;17297;54.022;10.760;2023-04-15T04:37:46;30.42;;;18.90;;
30515;SDS011;17297;54.022;10.760;2023-04-15T04:40:11;34.40;;;20.75;;
30515;SDS011;17297;54.022;10.760;2023-04-15T04:42:37;37.75;;;21.90;;
30515;SDS011;17297;54.022;10.760;2023-04-15T04:45:02;35.30;;;19.90;;
30515;SDS011;17297;54.022;10.760;2023-04-15T04:47:27;31.98;;;19.85;;
30515;SDS011;17297;54.022;10.760;2023-04-15T04:49:54;27.58;;;17.77;;
30515;SDS011;17297;54.022;10.760;2023-04-15T04:52:19;34.97;;;21.02;;
30515;SDS011;17297;54.022;10.760;2023-04-15T04:54:44;35.78;;;21.13;;
30515;SDS011;17297;54.022;10.760;2023-04-15T04:57:10;34.33;;;20.35;;
30515;SDS011;17297;54.022;10.760;2023-04-15T04:59:37;31.60;;;18.98;;
30515;SDS011;17297;54.022;10.760;2023-04-15T05:02:02;34.75;;;20.95;;
30515;SDS011;17297;54.022;10.760;2023-04-15T05:04:28;38.85;;;20.80;;
30515;SDS011;17297;54.022;10.760;2023-04-15T05:06:53;33.95;;;20.90;;
30515;SDS011;17297;54.022;10.760;2023-04-15T05:09:18;32.33;;;20.73;;
30515;SDS011;17297;54.022;10.760;2023-04-15T05:11:44;34.08;;;21.52;;
30515;SDS011;17297;54.022;10.760;2023-04-15T05:14:09;32.15;;;19.58;;
30515;SDS011;17297;54.022;10.760;2023-04-15T05:16:35;36.10;;;21.42;;
30515;SDS011;17297;54.022;10.760;2023-04-15T05:19:00;35.90;;;22.35;;
30515;SDS011;17297;54.022;10.760;2023-04-15T05:21:25;42.00;;;21.63;;
30515;SDS011;17297;54.022;10.760;2023-04-15T05:23:51;34.67;;;20.85;;
30515;SDS011;17297;54.022;10.760;2023-04-15T05:26:17;42.80;;;22.80;;
30515;SDS011;17297;54.022;10.760;2023-04-15T05:28:42;40.05;;;21.10;;
30515;SDS011;17297;54.022;10.760;2023-04-15T05:31:07;34.72;;;22.17;;
30515;SDS011;17297;54.022;10.760;2023-04-15T05:33:32;32.17;;;19.88;;
30515;SDS011;17297;54.022;10.760;2023-04-15T05:35:58;35.30;;;20.77;;
30515;SDS011;17297;54.022;10.760;2023-04-15T05:38:23;41.00;;;25.40;;
30515;SDS011;17297;54.022;10.760;2023-04-15T05:40:49;35.25;;;22.45;;
30515;SDS011;17297;54.022;10.760;2023-04-15T05:43:14;37.80;;;21.42;;
30515;SDS011;17297;54.022;10.760;2023-04-15T05:45:40;39.75;;;23.52;;
30515;SDS011;17297;54.022;10.760;2023-04-15T05:48:05;38.63;;;23.27;;
30515;SDS011;17297;54.022;10.760;2023-04-15T05:50:31;39.97;;;24.35;;
30515;SDS011;17297;54.022;10.760;2023-04-15T05:52:56;41.60;;;25.10;;
30515;SDS011;17297;54.022;10.760;2023-04-15T05:55:22;43.47;;;26.35;;
30515;SDS011;17297;54.022;10.760;2023-04-15T05:57:47;40.65;;;23.88;;
30515;SDS011;17297;54.022;10.760;2023-04-15T06:00:12;38.20;;;22.77;;
30515;SDS011;17297;54.022;10.760;2023-04-15T06:02:39;38.40;;;23.33;;
30515;SDS011;17297;54.022;10.760;2023-04-15T06:05:05;40.20;;;23.58;;
30515;SDS011;17297;54.022;10.760;2023-04-15T06:07:34;45.83;;;25.67;;
30515;SDS011;17297;54.022;10.760;2023-04-15T06:10:01;42.08;;;24.20;;
30515;SDS011;17297;54.022;10.760;2023-04-15T06:12:27;39.33;;;24.73;;
30515;SDS011;17297;54.022;10.760;2023-04-15T06:14:52;40.47;;;24.60;;
30515;SDS011;17297;54.022;10.760;2023-04-15T06:17:18;40.75;;;23.10;;
30515;SDS011;17297;54.022;10.760;2023-04-15T06:19:43;38.53;;;22.02;;
30515;SDS011;17297;54.022;10.760;2023-04-15T06:22:08;41.10;;;23.65;;
30515;SDS011;17297;54.022;10.760;2023-04-15T06:24:34;39.45;;;21.33;;
30515;SDS011;17297;54.022;10.760;2023-04-15T06:27:01;40.78;;;23.83;;
30515;SDS011;17297;54.022;10.760;2023-04-15T06:29:27;35.00;;;21.42;;
30515;SDS011;17297;54.022;10.760;2023-04-15T06:31:52;36.90;;;21.58;;
30515;SDS011;17297;54.022;10.760;2023-04-15T06:34:18;37.03;;;21.70;;
30515;SDS011;17297;54.022;10.760;2023-04-15T06:36:43;40.22;;;20.33;;
30515;SDS011;17297;54.022;10.760;2023-04-15T06:39:08;38.03;;;22.05;;
30515;SDS011;17297;54.022;10.760;2023-04-15T06:41:34;38.30;;;22.83;;
30515;SDS011;17297;54.022;10.760;2023-04-15T06:44:00;34.75;;;22.27;;
30515;SDS011;17297;54.022;10.760;2023-04-15T06:46:25;36.88;;;21.45;;
30515;SDS011;17297;54.022;10.760;2023-04-15T06:48:50;39.65;;;22.38;;
30515;SDS011;17297;54.022;10.760;2023-04-15T06:51:16;34.70;;;20.17;;
30515;SDS011;17297;54.022;10.760;2023-04-15T06:53:41;39.58;;;20.63;;
30515;SDS011;17297;54.022;10.760;2023-04-15T06:56:08;35.45;;;21.95;;
30515;SDS011;17297;54.022;10.760;2023-04-15T06:58:33;31.48;;;20.08;;
30515;SDS011;17297;54.022;10.760;2023-04-15T07:00:59;34.13;;;19.05;;
30515;SDS011;17297;54.022;10.760;2023-04-15T07:03:24;33.97;;;20.67;;
30515;SDS011;17297;54.022;10.760;2023-04-15T07:05:50;32.20;;;20.27;;
30515;SDS011;17297;54.022;10.760;2023-04-15T07:08:15;38.13;;;21.80;;
30515;SDS011;17297;54.022;10.760;2023-04-15T07:10:40;33.90;;;20.80;;
30515;SDS011;17297;54.022;10.760;2023-04-15T07:13:06;38.25;;;23.17;;
30515;SDS011;17297;54.022;10.760;2023-04-15T07:15:32;34.22;;;21.08;;
30515;SDS011;17297;54.022;10.760;2023-04-15T07:17:58;32.17;;;18.48;;
30515;SDS011;17297;54.022;10.760;2023-04-15T07:20:23;30.80;;;17.30;;
30515;SDS011;17297;54.022;10.760;2023-04-15T07:22:49;33.55;;;19.42;;
30515;SDS011;17297;54.022;10.760;2023-04-15T07:25:14;30.48;;;18.13;;
30515;SDS011;17297;54.022;10.760;2023-04-15T07:27:39;36.17;;;20.55;;
30515;SDS011;17297;54.022;10.760;2023-04-15T07:30:05;31.52;;;19.58;;
30515;SDS011;17297;54.022;10.760;2023-04-15T07:32:31;29.52;;;18.08;;
30515;SDS011;17297;54.022;10.760;2023-04-15T07:34:56;29.30;;;17.77;;
30515;SDS011;17297;54.022;10.760;2023-04-15T07:37:22;30.13;;;17.00;;
30515;SDS011;17297;54.022;10.760;2023-04-15T07:39:48;31.42;;;18.77;;
30515;SDS011;17297;54.022;10.760;2023-04-15T07:42:13;34.47;;;20.25;;
30515;SDS011;17297;54.022;10.760;2023-04-15T07:44:39;33.67;;;19.35;;
30515;SDS011;17297;54.022;10.760;2023-04-15T07:47:04;28.58;;;19.17;;
30515;SDS011;17297;54.022;10.760;2023-04-15T07:49:30;32.60;;;19.95;;
30515;SDS011;17297;54.022;10.760;2023-04-15T07:51:56;32.53;;;19.42;;
30515;SDS011;17297;54.022;10.760;2023-04-15T07:54:23;35.35;;;20.35;;
30515;SDS011;17297;54.022;10.760;2023-04-15T07:56:49;29.85;;;18.75;;
30515;SDS011;17297;54.022;10.760;2023-04-15T07:59:15;29.67;;;17.40;;
30515;SDS011;17297;54.022;10.760;2023-04-15T08:01:42;25.20;;;16.40;;
30515;SDS011;17297;54.022;10.760;2023-04-15T08:04:08;34.58;;;18.77;;
30515;SDS011;17297;54.022;10.760;2023-04-15T08:06:33;32.95;;;19.52;;
30515;SDS011;17297;54.022;10.760;2023-04-15T08:08:58;28.10;;;17.48;;
30515;SDS011;17297;54.022;10.760;2023-04-15T08:11:24;28.90;;;17.63;;
30515;SDS011;17297;54.022;10.760;2023-04-15T08:13:51;28.60;;;18.85;;
30515;SDS011;17297;54.022;10.760;2023-04-15T08:16:17;24.00;;;15.70;;
30515;SDS011;17297;54.022;10.760;2023-04-15T08:18:45;24.85;;;15.45;;
30515;SDS011;17297;54.022;10.760;2023-04-15T08:21:11;33.85;;;18.20;;
30515;SDS011;17297;54.022;10.760;2023-04-15T08:23:37;27.38;;;18.38;;
30515;SDS011;17297;54.022;10.760;2023-04-15T08:26:03;25.48;;;16.95;;
30515;SDS011;17297;54.022;10.760;2023-04-15T08:28:28;29.50;;;17.70;;
30515;SDS011;17297;54.022;10.760;2023-04-15T08:30:54;30.10;;;18.10;;
30515;SDS011;17297;54.022;10.760;2023-04-15T08:33:20;30.48;;;18.60;;
30515;SDS011;17297;54.022;10.760;2023-04-15T08:35:45;21.85;;;15.80;;
30515;SDS011;17297;54.022;10.760;2023-04-15T08:38:11;23.85;;;15.95;;
30515;SDS011;17297;54.022;10.760;2023-04-15T08:40:43;25.38;;;15.80;;
30515;SDS011;17297;54.022;10.760;2023-04-15T08:43:11;29.40;;;17.88;;
30515;SDS011;17297;54.022;10.760;2023-04-15T08:45:42;26.23;;;17.20;;
30515;SDS011;17297;54.022;10.760;2023-04-15T08:48:09;23.50;;;15.93;;
30515;SDS011;17297;54.022;10.760;2023-04-15T08:50:40;30.63;;;19.33;;
30515;SDS011;17297;54.022;10.760;2023-04-15T08:53:06;24.60;;;15.23;;
30515;SDS011;17297;54.022;10.760;2023-04-15T08:55:32;23.92;;;14.90;;
30515;SDS011;17297;54.022;10.760;2023-04-15T08:58:00;23.73;;;15.45;;
30515;SDS011;17297;54.022;10.760;2023-04-15T09:00:27;24.70;;;16.70;;
30515;SDS011;17297;54.022;10.760;2023-04-15T09:02:54;25.38;;;15.68;;
30515;SDS011;17297;54.022;10.760;2023-04-15T09:05:20;25.45;;;16.95;;
30515;SDS011;17297;54.022;10.760;2023-04-15T09:07:47;23.90;;;16.92;;
30515;SDS011;17297;54.022;10.760;2023-04-15T09:10:12;22.83;;;16.80;;
30515;SDS011;17297;54.022;10.760;2023-04-15T09:12:38;24.38;;;17.17;;
30515;SDS011;17297;54.022;10.760;2023-04-15T09:15:03;25.27;;;17.75;;
30515;SDS011;17297;54.022;10.760;2023-04-15T09:17:29;26.58;;;16.67;;
30515;SDS011;17297;54.022;10.760;2023-04-15T09:20:07;23.55;;;17.23;;
30515;SDS011;17297;54.022;10.760;2023-04-15T09:22:33;25.27;;;17.63;;
30515;SDS011;17297;54.022;10.760;2023-04-15T09:24:59;20.00;;;15.15;;
30515;SDS011;17297;54.022;10.760;2023-04-15T09:27:25;24.63;;;17.35;;
30515;SDS011;17297;54.022;10.760;2023-04-15T09:29:50;23.85;;;16.55;;
30515;SDS011;17297;54.022;10.760;2023-04-15T09:32:18;25.88;;;16.77;;
30515;SDS011;17297;54.022;10.760;2023-04-15T09:34:45;26.02;;;18.02;;
30515;SDS011;17297;54.022;10.760;2023-04-15T09:37:12;25.30;;;17.05;;
30515;SDS011;17297;54.022;10.760;2023-04-15T09:39:47;24.67;;;15.95;;
30515;SDS011;17297;54.022;10.760;2023-04-15T09:42:14;27.30;;;16.17;;
30515;SDS011;17297;54.022;10.760;2023-04-15T09:44:41;26.65;;;18.17;;
30515;SDS011;17297;54.022;10.760;2023-04-15T09:47:07;24.30;;;16.92;;
30515;SDS011;17297;54.022;10.760;2023-04-15T09:49:32;23.45;;;18.15;;
30515;SDS011;17297;54.022;10.760;2023-04-15T09:52:01;22.73;;;16.95;;
30515;SDS011;17297;54.022;10.760;2023-04-15T09:54:36;25.20;;;17.73;;
30515;SDS011;17297;54.022;10.760;2023-04-15T09:57:06;25.13;;;18.17;;
30515;SDS011;17297;54.022;10.760;2023-04-15T09:59:32;28.10;;;17.75;;
30515;SDS011;17297;54.022;10.760;2023-04-15T10:01:58;31.25;;;20.70;;
30515;SDS011;17297;54.022;10.760;2023-04-15T10:04:24;25.73;;;19.38;;
30515;SDS011;17297;54.022;10.760;2023-04-15T10:06:52;28.20;;;21.23;;
30515;SDS011;17297;54.022;10.760;2023-04-15T10:09:17;26.30;;;18.90;;
30515;SDS011;17297;54.022;10.760;2023-04-15T10:11:43;27.60;;;19.67;;
30515;SDS011;17297;54.022;10.760;2023-04-15T10:14:11;25.63;;;17.95;;
30515;SDS011;17297;54.022;10.760;2023-04-15T10:16:38;30.50;;;20.73;;
30515;SDS011;17297;54.022;10.760;2023-04-15T10:19:07;31.52;;;21.23;;
30515;SDS011;17297;54.022;10.760;2023-04-15T10:21:33;35.80;;;21.20;;
30515;SDS011;17297;54.022;10.760;2023-04-15T10:24:01;32.72;;;23.13;;
30515;SDS011;17297;54.022;10.760;2023-04-15T10:26:27;30.45;;;19.88;;
30515;SDS011;17297;54.022;10.760;2023-04-15T10:28:53;31.65;;;22.15;;
30515;SDS011;17297;54.022;10.760;2023-04-15T10:31:19;36.47;;;23.50;;
30515;SDS011;17297;54.022;10.760;2023-04-15T10:33:45;30.35;;;22.55;;
30515;SDS011;17297;54.022;10.760;2023-04-15T10:36:12;34.05;;;25.20;;
30515;SDS011;17297;54.022;10.760;2023-04-15T10:38:42;33.28;;;24.67;;
30515;SDS011;17297;54.022;10.760;2023-04-15T10:41:27;35.42;;;22.42;;
30515;SDS011;17297;54.022;10.760;2023-04-15T10:49:09;34.55;;;23.48;;
30515;SDS011;17297;54.022;10.760;2023-04-15T10:51:39;32.35;;;21.38;;
30515;SDS011;17297;54.022;10.760;2023-04-15T10:54:13;40.80;;;26.25;;
30515;SDS011;17297;54.022;10.760;2023-04-15T10:57:42;36.13;;;25.92;;
30515;SDS011;17297;54.022;10.760;2023-04-15T11:00:00;41.65;;;29.27;;
30515;SDS011;17297;54.022;10.760;2023-04-15T11:02:37;45.42;;;30.90;;
30515;SDS011;17297;54.022;10.760;2023-04-15T11:05:21;41.28;;;29.00;;
30515;SDS011;17297;54.022;10.760;2023-04-15T11:08:07;44.03;;;28.83;;
30515;SDS011;17297;54.022;10.760;2023-04-15T11:12:59;43.65;;;28.80;;
30515;SDS011;17297;54.022;10.760;2023-04-15T11:15:30;50.17;;;29.60;;
30515;SDS011;17297;54.022;10.760;2023-04-15T11:17:57;46.60;;;29.85;;
30515;SDS011;17297;54.022;10.760;2023-04-15T11:20:24;44.65;;;29.10;;
30515;SDS011;17297;54.022;10.760;2023-04-15T11:22:50;38.13;;;26.92;;
30515;SDS011;17297;54.022;10.760;2023-04-15T11:28:07;34.78;;;23.75;;
30515;SDS011;17297;54.022;10.760;2023-04-15T11:30:34;40.85;;;25.13;;
30515;SDS011;17297;54.022;10.760;2023-04-15T11:33:04;40.00;;;25.58;;
30515;SDS011;17297;54.022;10.760;2023-04-15T11:35:31;38.05;;;24.27;;
30515;SDS011;17297;54.022;10.760;2023-04-15T11:38:03;40.10;;;26.45;;
30515;SDS011;17297;54.022;10.760;2023-04-15T11:40:32;40.17;;;24.55;;
30515;SDS011;17297;54.022;10.760;2023-04-15T11:43:08;36.58;;;26.05;;
30515;SDS011;17297;54.022;10.760;2023-04-15T11:45:36;43.88;;;24.85;;
30515;SDS011;17297;54.022;10.760;2023-04-15T11:48:11;38.67;;;23.90;;
30515;SDS011;17297;54.022;10.760;2023-04-15T11:50:37;36.90;;;24.40;;
30515;SDS011;17297;54.022;10.760;2023-04-15T11:53:07;38.25;;;22.55;;
30515;SDS011;17297;54.022;10.760;2023-04-15T11:55:52;33.08;;;23.02;;
30515;SDS011;17297;54.022;10.760;2023-04-15T11:58:21;42.75;;;25.75;;
30515;SDS011;17297;54.022;10.760;2023-04-15T12:00:57;32.55;;;21.95;;
30515;SDS011;17297;54.022;10.760;2023-04-15T12:08:57;41.90;;;24.25;;
30515;SDS011;17297;54.022;10.760;2023-04-15T12:11:43;38.75;;;25.08;;
30515;SDS011;17297;54.022;10.760;2023-04-15T12:14:28;31.98;;;21.83;;
30515;SDS011;17297;54.022;10.760;2023-04-15T12:17:01;31.27;;;21.60;;
30515;SDS011;17297;54.022;10.760;2023-04-15T12:19:36;33.58;;;23.73;;
30515;SDS011;17297;54.022;10.760;2023-04-15T12:22:05;35.97;;;22.67;;
30515;SDS011;17297;54.022;10.760;2023-04-15T12:24:35;41.28;;;24.15;;
30515;SDS011;17297;54.022;10.760;2023-04-15T12:27:05;40.53;;;24.50;;
30515;SDS011;17297;54.022;10.760;2023-04-15T12:29:31;32.83;;;22.60;;
30515;SDS011;17297;54.022;10.760;2023-04-15T12:34:32;33.20;;;21.23;;
30515;SDS011;17297;54.022;10.760;2023-04-15T12:37:01;32.80;;;21.73;;
30515;SDS011;17297;54.022;10.760;2023-04-15T12:39:28;33.30;;;23.05;;
30515;SDS011;17297;54.022;10.760;2023-04-15T12:41:55;36.13;;;23.30;;
30515;SDS011;17297;54.022;10.760;2023-04-15T12:44:23;35.03;;;22.10;;
30515;SDS011;17297;54.022;10.760;2023-04-15T12:46:49;32.33;;;21.15;;
30515;SDS011;17297;54.022;10.760;2023-04-15T12:49:15;31.20;;;20.65;;
30515;SDS011;17297;54.022;10.760;2023-04-15T12:51:43;29.27;;;21.27;;
30515;SDS011;17297;54.022;10.760;2023-04-15T12:54:08;38.10;;;23.70;;
30515;SDS011;17297;54.022;10.760;2023-04-15T12:56:34;40.90;;;23.77;;
30515;SDS011;17297;54.022;10.760;2023-04-15T12:58:59;32.42;;;20.27;;
30515;SDS011;17297;54.022;10.760;2023-04-15T13:01:24;40.25;;;22.42;;
30515;SDS011;17297;54.022;10.760;2023-04-15T13:03:50;39.40;;;24.55;;
30515;SDS011;17297;54.022;10.760;2023-04-15T13:06:15;36.25;;;24.65;;
30515;SDS011;17297;54.022;10.760;2023-04-15T13:08:41;31.40;;;20.42;;
30515;SDS011;17297;54.022;10.760;2023-04-15T13:11:07;35.78;;;21.70;;
30515;SDS011;17297;54.022;10.760;2023-04-15T13:13:32;27.15;;;17.27;;
30515;SDS011;17297;54.022;10.760;2023-04-15T13:15:58;29.58;;;19.45;;
30515;SDS011;17297;54.022;10.760;2023-04-15T13:18:23;27.42;;;18.92;;
30515;SDS011;17297;54.022;10.760;2023-04-15T13:20:49;25.42;;;19.23;;
30515;SDS011;17297;54.022;10.760;2023-04-15T13:23:15;28.70;;;19.85;;
30515;SDS011;17297;54.022;10.760;2023-04-15T13:25:41;27.83;;;20.27;;
30515;SDS011;17297;54.022;10.760;2023-04-15T13:28:06;31.77;;;19.77;;
30515;SDS011;17297;54.022;10.760;2023-04-15T13:30:31;32.95;;;19.33;;
30515;SDS011;17297;54.022;10.760;2023-04-15T13:32:57;31.77;;;18.20;;
30515;SDS011;17297;54.022;10.760;2023-04-15T13:35:22;27.75;;;18.00;;
30515;SDS011;17297;54.022;10.760;2023-04-15T13:37:47;30.77;;;17.70;;
30515;SDS011;17297;54.022;10.760;2023-04-15T13:40:13;29.02;;;19.10;;
30515;SDS011;17297;54.022;10.760;2023-04-15T13:42:38;28.92;;;17.77;;
30515;SDS011;17297;54.022;10.760;2023-04-15T13:45:04;29.95;;;18.55;;
30515;SDS011;17297;54.022;10.760;2023-04-15T13:47:30;26.65;;;17.55;;
30515;SDS011;17297;54.022;10.760;2023-04-15T13:49:55;27.88;;;18.85;;
30515;SDS011;17297;54.022;10.760;2023-04-15T13:52:21;34.88;;;20.02;;
30515;SDS011;17297;54.022;10.760;2023-04-15T13:54:47;28.15;;;18.90;;
30515;SDS011;17297;54.022;10.760;2023-04-15T13:57:12;31.83;;;19.67;;
30515;SDS011;17297;54.022;10.760;2023-04-15T13:59:38;26.90;;;18.70;;
30515;SDS011;17297;54.022;10.760;2023-04-15T14:02:04;25.42;;;19.40;;
30515;SDS011;17297;54.022;10.760;2023-04-15T14:04:30;29.10;;;21.27;;
30515;SDS011;17297;54.022;10.760;2023-04-15T14:06:56;25.92;;;19.75;;
30515;SDS011;17297;54.022;10.760;2023-04-15T14:09:25;32.38;;;20.17;;
30515;SDS011;17297;54.022;10.760;2023-04-15T14:11:50;29.25;;;19.58;;
30515;SDS011;17297;54.022;10.760;2023-04-15T14:14:16;41.83;;;21.23;;
30515;SDS011;17297;54.022;10.760;2023-04-15T14:16:41;29.75;;;20.10;;
30515;SDS011;17297;54.022;10.760;2023-04-15T14:19:06;32.00;;;22.00;;
30515;SDS011;17297;54.022;10.760;2023-04-15T14:21:32;26.40;;;18.05;;
30515;SDS011;17297;54.022;10.760;2023-04-15T14:23:57;29.17;;;20.38;;
30515;SDS011;17297;54.022;10.760;2023-04-15T14:26:23;27.45;;;21.10;;
30515;SDS011;17297;54.022;10.760;2023-04-15T14:28:48;30.88;;;21.30;;